createdAt,value
2018-12-21T00:01:36.564Z,9.13
2018-12-21T00:04:05.396Z,8.37
2018-12-21T00:06:34.044Z,8.07
2018-12-21T00:09:03.405Z,10.37
2018-12-21T00:11:32.100Z,9.07
2018-12-21T00:14:01.201Z,8.43
2018-12-21T00:16:29.964Z,8.83
2018-12-21T00:18:58.799Z,9.23
2018-12-21T00:21:27.862Z,8.20
2018-12-21T00:23:56.587Z,9.90
2018-12-21T00:26:25.306Z,8.03
2018-12-21T00:28:54.323Z,7.60
2018-12-21T00:31:28.333Z,8.43
2018-12-21T00:34:02.274Z,7.87
2018-12-21T00:36:36.181Z,6.47
2018-12-21T00:39:12.237Z,8.17
2018-12-21T00:41:40.135Z,8.13
2018-12-21T00:44:31.128Z,7.30
2018-12-21T00:47:01.860Z,7.23
2018-12-21T00:49:30.589Z,7.10
2018-12-21T00:51:59.243Z,7.93
2018-12-21T00:54:28.202Z,7.73
2018-12-21T00:56:56.957Z,7.23
2018-12-21T00:59:25.717Z,8.53
2018-12-21T01:01:54.674Z,7.90
2018-12-21T01:04:23.347Z,8.27
2018-12-21T01:06:52.134Z,6.63
2018-12-21T01:09:21.083Z,5.83
2018-12-21T01:11:49.924Z,7.27
2018-12-21T01:14:18.679Z,7.07
2018-12-21T01:16:47.383Z,7.50
2018-12-21T01:19:15.772Z,6.17
2018-12-21T01:21:44.730Z,7.53
2018-12-21T01:24:13.383Z,8.03
2018-12-21T01:26:42.139Z,7.57
2018-12-21T01:29:10.889Z,8.63
2018-12-21T01:31:39.589Z,8.13
2018-12-21T01:34:08.247Z,6.67
2018-12-21T01:36:37.292Z,6.43
2018-12-21T01:39:06.973Z,6.60
2018-12-21T01:41:35.656Z,5.53
2018-12-21T01:44:04.522Z,6.30
2018-12-21T01:46:33.223Z,5.77
2018-12-21T01:49:01.899Z,5.63
2018-12-21T01:51:30.611Z,6.27
2018-12-21T01:53:59.265Z,7.67
2018-12-21T01:56:28.021Z,7.40
2018-12-21T01:58:57.064Z,6.87
2018-12-21T02:01:25.771Z,6.33
2018-12-21T02:03:54.466Z,6.63
2018-12-21T02:06:23.334Z,6.53
2018-12-21T02:08:52.035Z,5.67
2018-12-21T02:11:20.764Z,6.23
2018-12-21T02:13:49.496Z,5.13
2018-12-21T02:16:18.371Z,6.23
2018-12-21T02:18:47.129Z,6.90
2018-12-21T02:21:16.130Z,6.70
2018-12-21T02:23:44.926Z,7.80
2018-12-21T02:26:13.668Z,6.80
2018-12-21T02:28:42.425Z,7.70
2018-12-21T02:31:11.207Z,6.50
2018-12-21T02:33:39.923Z,5.80
2018-12-21T02:36:08.650Z,6.63
2018-12-21T02:38:37.458Z,6.87
2018-12-21T02:41:06.304Z,6.47
2018-12-21T02:43:35.216Z,5.77
2018-12-21T02:46:04.038Z,6.10
2018-12-21T02:48:32.736Z,6.47
2018-12-21T02:51:01.468Z,5.80
2018-12-21T02:53:30.410Z,6.43
2018-12-21T02:55:59.154Z,5.10
2018-12-21T02:58:27.927Z,6.87
2018-12-21T03:00:56.743Z,6.37
2018-12-21T03:03:25.135Z,6.60
2018-12-21T03:05:53.543Z,7.30
2018-12-21T03:08:21.904Z,6.03
2018-12-21T03:10:50.287Z,5.53
2018-12-21T03:13:18.665Z,5.47
2018-12-21T03:15:47.062Z,5.27
2018-12-21T03:18:15.459Z,4.77
2018-12-21T03:20:43.871Z,5.33
2018-12-21T03:23:12.260Z,5.63
2018-12-21T03:25:40.652Z,6.13
2018-12-21T03:28:09.038Z,4.63
2018-12-21T03:30:37.454Z,5.47
2018-12-21T03:33:05.833Z,5.50
2018-12-21T03:35:34.209Z,6.67
2018-12-21T03:38:02.600Z,5.70
2018-12-21T03:40:30.996Z,6.23
2018-12-21T03:42:59.432Z,5.23
2018-12-21T03:45:27.802Z,5.63
2018-12-21T03:47:56.160Z,5.93
2018-12-21T03:50:24.543Z,5.33
2018-12-21T03:52:52.976Z,8.37
2018-12-21T03:55:21.414Z,9.90
2018-12-21T03:57:49.828Z,10.70
2018-12-21T04:00:18.203Z,6.73
2018-12-21T04:02:46.580Z,5.60
2018-12-21T04:05:14.959Z,8.33
2018-12-21T04:07:43.333Z,6.57
2018-12-21T04:10:11.700Z,7.67
2018-12-21T04:12:40.412Z,5.97
2018-12-21T04:15:08.843Z,5.77
2018-12-21T04:17:37.270Z,5.60
2018-12-21T04:20:05.771Z,7.20
2018-12-21T04:22:34.654Z,4.47
2018-12-21T04:25:03.396Z,6.17
2018-12-21T04:27:31.864Z,9.17
2018-12-21T04:30:00.306Z,5.57
2018-12-21T04:32:28.943Z,8.80
2018-12-21T04:34:57.357Z,9.27
2018-12-21T04:37:25.727Z,8.07
2018-12-21T04:39:54.131Z,9.27
2018-12-21T04:42:22.564Z,7.63
2018-12-21T04:44:50.947Z,12.23
2018-12-21T04:47:19.323Z,7.00
2018-12-21T04:49:47.682Z,9.47
2018-12-21T04:52:16.085Z,8.90
2018-12-21T04:54:44.528Z,9.40
2018-12-21T04:57:12.927Z,10.50
2018-12-21T04:59:41.310Z,8.63
2018-12-21T05:02:09.710Z,14.33
2018-12-21T05:04:38.088Z,13.97
2018-12-21T05:07:12.327Z,9.40
2018-12-21T05:09:36.997Z,10.77
2018-12-21T05:12:05.396Z,7.10
2018-12-21T05:14:33.790Z,9.67
2018-12-21T05:17:02.168Z,7.87
2018-12-21T05:19:30.559Z,12.87
2018-12-21T05:21:58.956Z,8.93
2018-12-21T05:24:27.334Z,8.17
2018-12-21T05:26:55.922Z,9.00
2018-12-21T05:29:24.441Z,17.03
2018-12-21T05:31:53.023Z,11.03
2018-12-21T05:34:21.430Z,10.40
2018-12-21T05:36:49.807Z,8.57
2018-12-21T05:39:18.254Z,8.90
2018-12-21T05:41:47.029Z,7.37
2018-12-21T05:44:15.434Z,8.90
2018-12-21T05:46:43.814Z,10.73
2018-12-21T05:49:12.203Z,7.30
2018-12-21T05:51:40.606Z,9.13
2018-12-21T05:54:09.064Z,8.67
2018-12-21T05:56:37.449Z,14.07
2018-12-21T05:59:06.001Z,15.47
2018-12-21T06:01:34.768Z,11.53
2018-12-21T06:04:03.526Z,8.80
2018-12-21T06:06:32.333Z,10.30
2018-12-21T06:09:01.196Z,9.97
2018-12-21T06:11:29.987Z,7.93
2018-12-21T06:14:01.059Z,7.83
2018-12-21T06:16:29.943Z,7.37
2018-12-21T06:18:58.730Z,10.37
2018-12-21T06:21:27.526Z,7.53
2018-12-21T06:23:56.293Z,9.73
2018-12-21T06:26:25.477Z,15.20
2018-12-21T06:28:54.226Z,9.67
2018-12-21T06:31:22.797Z,10.20
2018-12-21T06:33:51.539Z,7.67
2018-12-21T06:36:23.577Z,7.60
2018-12-21T06:38:52.406Z,9.30
2018-12-21T06:41:21.304Z,8.53
2018-12-21T06:43:50.115Z,8.70
2018-12-21T06:46:18.846Z,10.23
2018-12-21T06:48:47.660Z,9.27
2018-12-21T06:51:16.715Z,12.43
2018-12-21T06:53:45.425Z,8.00
2018-12-21T06:56:14.231Z,8.57
2018-12-21T06:58:42.960Z,13.60
2018-12-21T07:01:11.699Z,8.87
2018-12-21T07:03:40.499Z,10.00
2018-12-21T07:06:09.319Z,8.00
2018-12-21T07:08:38.218Z,10.90
2018-12-21T07:11:06.959Z,8.37
2018-12-21T07:13:35.778Z,7.87
2018-12-21T07:16:04.579Z,9.93
2018-12-21T07:18:33.383Z,7.23
2018-12-21T07:21:02.254Z,7.00
2018-12-21T07:23:31.018Z,11.47
2018-12-21T07:25:59.759Z,7.50
2018-12-21T07:28:28.597Z,10.57
2018-12-21T07:30:57.346Z,11.97
2018-12-21T07:33:26.387Z,12.67
2018-12-21T07:35:55.143Z,10.53
2018-12-21T07:38:23.957Z,11.40
2018-12-21T07:40:52.698Z,11.67
2018-12-21T07:43:21.428Z,15.07
2018-12-21T07:45:50.448Z,9.77
2018-12-21T07:48:19.174Z,10.37
2018-12-21T07:50:47.957Z,9.93
2018-12-21T07:53:16.776Z,18.10
2018-12-21T07:55:45.657Z,15.43
2018-12-21T07:58:14.496Z,12.83
2018-12-21T08:00:43.180Z,15.63
2018-12-21T08:03:11.946Z,13.20
2018-12-21T08:05:40.687Z,13.93
2018-12-21T08:08:09.386Z,14.10
2018-12-21T08:10:38.413Z,13.27
2018-12-21T08:13:07.263Z,12.40
2018-12-21T08:15:36.063Z,12.77
2018-12-21T08:18:04.965Z,53.47
2018-12-21T08:20:34.105Z,30.07
2018-12-21T08:23:06.249Z,22.83
2018-12-21T08:25:35.036Z,11.73
2018-12-21T08:28:03.809Z,10.63
2018-12-21T08:30:32.554Z,11.23
2018-12-21T08:33:01.313Z,10.33
2018-12-21T08:35:30.059Z,13.60
2018-12-21T08:37:58.855Z,9.70
2018-12-21T08:40:27.594Z,11.93
2018-12-21T08:42:56.015Z,11.40
2018-12-21T08:45:24.842Z,11.07
2018-12-21T08:47:53.667Z,8.27
2018-12-21T08:50:22.485Z,7.93
2018-12-21T08:52:51.211Z,7.97
2018-12-21T08:55:19.994Z,8.60
2018-12-21T08:57:48.839Z,9.47
2018-12-21T09:00:17.628Z,7.43
2018-12-21T09:02:46.429Z,6.50
2018-12-21T09:05:15.367Z,8.10
2018-12-21T09:07:44.161Z,6.80
2018-12-21T09:10:13.116Z,6.17
2018-12-21T09:12:41.530Z,7.30
2018-12-21T09:15:15.174Z,7.47
2018-12-21T09:17:43.930Z,6.17
2018-12-21T09:20:12.767Z,5.90
2018-12-21T09:22:41.528Z,5.93
2018-12-21T09:25:10.371Z,5.67
2018-12-21T09:27:39.233Z,8.23
2018-12-21T09:30:11.902Z,7.63
2018-12-21T09:32:40.656Z,6.97
2018-12-21T09:35:09.511Z,6.67
2018-12-21T09:37:38.339Z,9.20
2018-12-21T09:40:10.240Z,9.53
2018-12-21T09:42:38.912Z,8.50
2018-12-21T09:45:07.891Z,7.23
2018-12-21T09:47:36.694Z,7.37
2018-12-21T09:50:07.051Z,6.03
2018-12-21T09:52:35.798Z,7.87
2018-12-21T09:55:04.697Z,6.00
2018-12-21T09:57:33.495Z,8.10
2018-12-21T10:00:02.286Z,9.03
2018-12-21T10:02:35.761Z,7.37
2018-12-21T10:05:01.924Z,5.77
2018-12-21T10:07:30.726Z,6.73
2018-12-21T10:09:59.464Z,5.43
2018-12-21T10:12:28.335Z,8.10
2018-12-21T10:14:57.730Z,5.90
2018-12-21T10:17:26.499Z,5.33
2018-12-21T10:19:55.329Z,4.53
2018-12-21T10:22:24.281Z,4.43
2018-12-21T10:24:54.209Z,6.77
2018-12-21T10:27:23.398Z,3.80
2018-12-21T10:29:52.281Z,4.07
2018-12-21T10:32:21.259Z,5.40
2018-12-21T10:34:50.119Z,5.33
2018-12-21T10:37:18.948Z,6.00
2018-12-21T10:39:47.661Z,4.50
2018-12-21T10:42:16.408Z,6.83
2018-12-21T10:44:45.501Z,7.83
2018-12-21T10:47:14.251Z,4.50
2018-12-21T10:49:43.178Z,7.63
2018-12-21T10:52:12.038Z,4.23
2018-12-21T10:54:40.825Z,7.03
2018-12-21T10:57:09.712Z,4.47
2018-12-21T10:59:43.431Z,3.90
2018-12-21T11:02:09.398Z,6.97
2018-12-21T11:04:38.198Z,3.77
2018-12-21T11:07:07.072Z,6.10
2018-12-21T11:09:35.830Z,2.87
2018-12-21T11:12:04.690Z,4.93
2018-12-21T11:14:33.487Z,4.27
2018-12-21T11:17:02.375Z,2.90
2018-12-21T11:19:31.259Z,4.57
2018-12-21T11:22:00.003Z,4.33
2018-12-21T11:24:35.317Z,5.13
2018-12-21T11:26:59.300Z,4.40
2018-12-21T11:29:27.741Z,6.37
2018-12-21T11:31:56.548Z,5.03
2018-12-21T11:34:25.143Z,5.43
2018-12-21T11:36:53.634Z,5.80
2018-12-21T11:39:22.095Z,5.83
2018-12-21T11:41:50.482Z,4.67
2018-12-21T11:44:18.873Z,2.50
2018-12-21T11:46:47.351Z,5.87
2018-12-21T11:49:15.783Z,5.97
2018-12-21T11:51:44.195Z,7.87
2018-12-21T11:54:12.842Z,4.00
2018-12-21T11:56:41.618Z,5.53
2018-12-21T11:59:10.227Z,4.53
2018-12-21T12:01:38.646Z,2.67
2018-12-21T12:04:07.129Z,5.30
2018-12-21T12:06:35.963Z,5.53
2018-12-21T12:09:06.648Z,5.23
2018-12-21T12:11:35.223Z,5.13
2018-12-21T12:14:03.852Z,5.27
2018-12-21T12:16:32.263Z,4.87
2018-12-21T12:19:00.659Z,5.57
2018-12-21T12:21:29.384Z,2.70
2018-12-21T12:23:57.788Z,3.27
2018-12-21T12:26:26.184Z,3.23
2018-12-21T12:28:54.822Z,5.17
2018-12-21T12:31:23.275Z,3.60
2018-12-21T12:33:51.768Z,3.27
2018-12-21T12:36:20.207Z,6.13
2018-12-21T12:38:48.779Z,4.47
2018-12-21T12:41:17.253Z,5.30
2018-12-21T12:43:45.717Z,5.30
2018-12-21T12:46:14.154Z,4.67
2018-12-21T12:48:42.534Z,5.20
2018-12-21T12:51:11.256Z,2.73
2018-12-21T12:53:39.699Z,3.20
2018-12-21T12:56:08.087Z,4.03
2018-12-21T12:58:36.694Z,3.03
2018-12-21T13:01:05.102Z,4.07
2018-12-21T13:03:33.529Z,6.50
2018-12-21T13:06:01.886Z,5.40
2018-12-21T13:08:30.282Z,6.17
2018-12-21T13:10:58.655Z,3.30
2018-12-21T13:13:27.285Z,9.87
2018-12-21T13:15:55.802Z,4.73
2018-12-21T13:18:24.263Z,5.57
2018-12-21T13:20:52.660Z,6.67
2018-12-21T13:23:21.173Z,5.40
2018-12-21T13:25:49.639Z,3.67
2018-12-21T13:28:18.199Z,5.77
2018-12-21T13:30:46.602Z,7.43
2018-12-21T13:33:15.046Z,7.10
2018-12-21T13:35:43.429Z,6.83
2018-12-21T13:38:11.847Z,4.70
2018-12-21T13:40:40.315Z,5.70
2018-12-21T13:43:08.690Z,8.63
2018-12-21T13:45:37.067Z,5.50
2018-12-21T13:48:05.517Z,5.80
2018-12-21T13:50:33.924Z,5.90
2018-12-21T13:53:02.532Z,6.03
2018-12-21T13:55:30.938Z,6.00
2018-12-21T13:57:59.350Z,6.87
2018-12-21T14:00:27.747Z,5.10
2018-12-21T14:02:56.161Z,4.27
2018-12-21T14:05:24.526Z,8.10
2018-12-21T14:07:52.912Z,8.47
2018-12-21T14:10:21.604Z,5.10
2018-12-21T14:12:50.001Z,4.67
2018-12-21T14:15:18.390Z,6.90
2018-12-21T14:17:46.797Z,5.70
2018-12-21T14:20:17.362Z,5.67
2018-12-21T14:22:45.851Z,7.13
2018-12-21T14:25:14.469Z,5.13
2018-12-21T14:27:42.863Z,5.00
2018-12-21T14:30:11.227Z,4.70
2018-12-21T14:32:39.754Z,8.07
2018-12-21T14:35:08.434Z,6.33
2018-12-21T14:37:38.152Z,6.40
2018-12-21T14:40:07.377Z,7.83
2018-12-21T14:42:35.742Z,6.67
2018-12-21T14:45:04.658Z,6.90
2018-12-21T14:47:33.339Z,5.70
2018-12-21T14:50:01.761Z,6.03
2018-12-21T14:52:30.154Z,6.97
2018-12-21T14:54:58.542Z,5.83
2018-12-21T14:57:27.001Z,4.77
2018-12-21T14:59:55.382Z,4.47
2018-12-21T15:02:23.783Z,5.23
2018-12-21T15:04:52.186Z,5.70
2018-12-21T15:07:20.619Z,8.13
2018-12-21T15:09:49.015Z,4.97
2018-12-21T15:12:17.379Z,4.90
2018-12-21T15:14:49.639Z,6.67
2018-12-21T15:17:18.167Z,4.70
2018-12-21T15:19:46.542Z,3.70
2018-12-21T15:22:14.947Z,6.27
2018-12-21T15:24:43.369Z,5.23
2018-12-21T15:27:11.735Z,5.60
2018-12-21T15:29:41.133Z,5.87
2018-12-21T15:32:09.780Z,6.37
2018-12-21T15:34:39.243Z,4.67
2018-12-21T15:37:07.660Z,7.07
2018-12-21T15:39:36.102Z,4.93
2018-12-21T15:42:04.598Z,6.20
2018-12-21T15:44:33.050Z,6.33
2018-12-21T15:47:08.770Z,9.07
2018-12-21T15:49:31.919Z,6.17
2018-12-21T15:52:00.507Z,12.30
2018-12-21T15:54:28.874Z,6.70
2018-12-21T15:56:57.292Z,8.00
2018-12-21T15:59:25.779Z,5.83
2018-12-21T16:01:54.391Z,7.33
2018-12-21T16:04:22.755Z,7.43
2018-12-21T16:06:51.270Z,5.73
2018-12-21T16:09:19.937Z,5.93
2018-12-21T16:11:48.315Z,5.73
2018-12-21T16:14:16.695Z,5.80
2018-12-21T16:16:45.200Z,5.40
2018-12-21T16:19:13.567Z,6.43
2018-12-21T16:21:43.634Z,8.10
2018-12-21T16:24:12.170Z,5.77
2018-12-21T16:26:40.653Z,7.20
2018-12-21T16:29:09.039Z,8.30
2018-12-21T16:31:37.690Z,7.00
2018-12-21T16:34:06.056Z,4.97
2018-12-21T16:36:34.437Z,6.60
2018-12-21T16:39:02.975Z,6.77
2018-12-21T16:41:31.444Z,5.93
2018-12-21T16:43:59.851Z,7.30
2018-12-21T16:46:28.295Z,6.00
2018-12-21T16:48:56.688Z,6.00
2018-12-21T16:51:25.169Z,5.87
2018-12-21T16:53:53.631Z,9.37
2018-12-21T16:56:22.007Z,6.97
2018-12-21T16:58:50.466Z,5.73
2018-12-21T17:01:19.051Z,7.13
2018-12-21T17:03:47.413Z,9.10
2018-12-21T17:06:15.807Z,5.53
2018-12-21T17:08:44.295Z,7.27
2018-12-21T17:11:12.687Z,6.90
2018-12-21T17:13:41.655Z,5.97
2018-12-21T17:16:10.030Z,7.87
2018-12-21T17:18:39.151Z,5.13
2018-12-21T17:21:07.556Z,4.70
2018-12-21T17:23:36.302Z,4.90
2018-12-21T17:26:05.090Z,5.00
2018-12-21T17:28:33.533Z,5.47
2018-12-21T17:31:01.950Z,7.07
2018-12-21T17:33:30.351Z,6.73
2018-12-21T17:35:58.927Z,7.23
2018-12-21T17:38:27.476Z,5.70
2018-12-21T17:40:56.019Z,7.60
2018-12-21T17:43:24.434Z,5.43
2018-12-21T17:45:52.831Z,7.13
2018-12-21T17:48:21.222Z,5.90
2018-12-21T17:50:49.691Z,6.63
2018-12-21T17:53:18.079Z,6.63
2018-12-21T17:55:46.470Z,8.10
2018-12-21T17:58:14.882Z,9.57
2018-12-21T18:00:43.328Z,6.77
2018-12-21T18:03:51.840Z,6.23
2018-12-21T18:06:20.285Z,6.23
2018-12-21T18:08:48.825Z,7.77
2018-12-21T18:11:17.222Z,7.40
2018-12-21T18:13:45.619Z,11.53
2018-12-21T18:16:14.334Z,8.63
2018-12-21T18:18:42.731Z,8.27
2018-12-21T18:21:11.114Z,10.93
2018-12-21T18:23:40.400Z,9.57
2018-12-21T18:26:08.801Z,11.23
2018-12-21T18:28:37.208Z,9.10
2018-12-21T18:31:15.662Z,11.60
2018-12-21T18:33:44.603Z,8.97
2018-12-21T18:36:12.998Z,9.57
2018-12-21T18:38:41.399Z,9.83
2018-12-21T18:41:09.823Z,11.23
2018-12-21T18:43:38.252Z,7.37
2018-12-21T18:46:06.768Z,8.10
2018-12-21T18:48:35.487Z,7.47
2018-12-21T18:51:03.950Z,6.40
2018-12-21T18:53:32.324Z,9.73
2018-12-21T18:56:01.515Z,7.40
2018-12-21T18:58:29.917Z,8.70
2018-12-21T19:00:58.287Z,7.93
2018-12-21T19:03:26.782Z,7.03
2018-12-21T19:05:55.202Z,9.93
2018-12-21T19:08:23.592Z,7.97
2018-12-21T19:10:54.316Z,8.87
2018-12-21T19:13:22.763Z,7.43
2018-12-21T19:15:51.166Z,7.80
2018-12-21T19:18:19.647Z,6.90
2018-12-21T19:20:48.044Z,6.50
2018-12-21T19:23:16.422Z,9.13
2018-12-21T19:25:44.824Z,5.60
2018-12-21T19:28:13.219Z,6.10
2018-12-21T19:30:41.863Z,5.07
2018-12-21T19:33:10.269Z,6.60
2018-12-21T19:35:38.882Z,7.37
2018-12-21T19:38:07.282Z,4.70
2018-12-21T19:40:35.672Z,5.50
2018-12-21T19:43:04.094Z,4.77
2018-12-21T19:45:32.501Z,5.13
2018-12-21T19:48:00.928Z,6.93
2018-12-21T19:50:29.360Z,6.23
2018-12-21T19:52:58.067Z,6.57
2018-12-21T19:55:33.115Z,4.60
2018-12-21T19:58:01.511Z,6.63
2018-12-21T20:00:29.941Z,3.93
2018-12-21T20:02:58.350Z,7.87
2018-12-21T20:05:26.726Z,5.50
2018-12-21T20:07:55.119Z,5.83
2018-12-21T20:10:23.558Z,3.13
2018-12-21T20:12:51.938Z,4.20
2018-12-21T20:15:20.607Z,4.37
2018-12-21T20:17:49.201Z,5.53
2018-12-21T20:20:17.665Z,7.07
2018-12-21T20:22:46.175Z,3.73
2018-12-21T20:25:14.590Z,4.83
2018-12-21T20:27:42.968Z,4.90
2018-12-21T20:30:15.658Z,5.13
2018-12-21T20:32:44.040Z,5.40
2018-12-21T20:35:12.571Z,4.70
2018-12-21T20:37:41.047Z,4.67
2018-12-21T20:40:11.319Z,5.00
2018-12-21T20:42:39.772Z,4.70
2018-12-21T20:45:09.493Z,6.00
2018-12-21T20:47:37.905Z,4.50
2018-12-21T20:50:09.494Z,4.13
2018-12-21T20:52:37.882Z,4.37
2018-12-21T20:55:07.642Z,3.47
2018-12-21T20:57:36.442Z,5.97
2018-12-21T21:00:08.724Z,5.23
2018-12-21T21:02:37.154Z,5.60
2018-12-21T21:05:05.879Z,5.50
2018-12-21T21:07:38.120Z,4.03
2018-12-21T21:10:09.663Z,3.60
2018-12-21T21:12:38.114Z,5.73
2018-12-21T21:15:08.506Z,4.63
2018-12-21T21:17:36.920Z,5.17
2018-12-21T21:20:08.293Z,11.23
2018-12-21T21:22:36.715Z,7.67
2018-12-21T21:25:05.321Z,5.33
2018-12-21T21:27:33.760Z,7.10
2018-12-21T21:30:02.189Z,8.50
2018-12-21T21:32:30.567Z,5.53
2018-12-21T21:34:58.960Z,5.93
2018-12-21T21:37:27.367Z,7.37
2018-12-21T21:39:55.768Z,7.60
2018-12-21T21:42:24.174Z,6.30
2018-12-21T21:44:52.675Z,3.57
2018-12-21T21:47:21.386Z,8.07
2018-12-21T21:49:49.811Z,6.33
2018-12-21T21:52:18.209Z,6.10
2018-12-21T21:54:46.900Z,3.77
2018-12-21T21:57:15.319Z,5.63
2018-12-21T21:59:43.727Z,8.77
2018-12-21T22:02:12.436Z,6.13
2018-12-21T22:04:40.822Z,7.93
2018-12-21T22:07:09.282Z,5.83
2018-12-21T22:09:37.794Z,5.80
2018-12-21T22:12:06.177Z,5.13
2018-12-21T22:14:35.253Z,8.73
2018-12-21T22:17:03.702Z,6.03
2018-12-21T22:19:32.078Z,6.00
2018-12-21T22:22:00.891Z,4.80
2018-12-21T22:24:29.277Z,7.43
2018-12-21T22:26:57.658Z,9.27
2018-12-21T22:29:26.073Z,9.93
2018-12-21T22:31:54.454Z,4.73
2018-12-21T22:34:23.648Z,6.83
2018-12-21T22:36:52.080Z,5.80
2018-12-21T22:39:20.764Z,5.27
2018-12-21T22:41:49.175Z,6.37
2018-12-21T22:44:17.586Z,3.60
2018-12-21T22:46:46.307Z,9.87
2018-12-21T22:49:14.730Z,3.57
2018-12-21T22:51:43.114Z,6.77
2018-12-21T22:54:11.527Z,5.43
2018-12-21T22:56:39.919Z,8.80
2018-12-21T22:59:08.300Z,7.20
2018-12-21T23:01:36.679Z,4.57
2018-12-21T23:04:05.376Z,4.30
2018-12-21T23:06:33.855Z,9.33
2018-12-21T23:09:02.359Z,8.83
2018-12-21T23:11:31.038Z,7.57
2018-12-21T23:13:59.476Z,8.73
2018-12-21T23:16:27.902Z,6.77
2018-12-21T23:18:56.307Z,9.07
2018-12-21T23:21:24.697Z,5.93
2018-12-21T23:23:53.068Z,5.67
2018-12-21T23:26:21.694Z,7.30
2018-12-21T23:28:50.099Z,4.63
2018-12-21T23:31:18.477Z,5.73
2018-12-21T23:33:46.874Z,6.43
2018-12-21T23:36:15.247Z,8.27
2018-12-21T23:38:43.887Z,3.87
2018-12-21T23:41:12.257Z,4.57
2018-12-21T23:43:43.424Z,7.03
2018-12-21T23:46:11.100Z,6.93
2018-12-21T23:48:39.613Z,7.60
2018-12-21T23:51:07.997Z,5.50
2018-12-21T23:53:36.648Z,6.40
2018-12-21T23:56:12.084Z,5.90
2018-12-21T23:58:35.595Z,4.80
